createdAt,value
2022-11-25T00:00:23.752Z,99890.63
2022-11-25T00:02:51.558Z,99892.38
2022-11-25T00:05:20.554Z,99882.22
2022-11-25T00:07:48.195Z,99881.53
2022-11-25T00:10:15.821Z,99889.22
2022-11-25T00:12:43.464Z,99896.91
2022-11-25T00:15:11.213Z,99887.56
2022-11-25T00:17:38.816Z,99896.22
2022-11-25T00:20:07.686Z,99894.47
2022-11-25T00:22:36.686Z,99888.50
2022-11-25T00:25:04.641Z,99885.09
2022-11-25T00:27:32.223Z,99874.06
2022-11-25T00:30:00.512Z,99884.31
2022-11-25T00:32:28.131Z,99877.66
2022-11-25T00:34:55.701Z,99875.91
2022-11-25T00:37:23.413Z,99866.44
2022-11-25T00:39:52.878Z,99878.44
2022-11-25T00:42:38.308Z,99876.94
2022-11-25T00:45:07.316Z,99877.81
2022-11-25T00:47:34.952Z,99872.81
2022-11-25T00:50:02.570Z,99874.56
2022-11-25T00:52:30.212Z,99867.81
2022-11-25T00:54:59.200Z,99874.75
2022-11-25T00:57:26.798Z,99867.19
2022-11-25T00:59:54.423Z,99872.47
2022-11-25T01:02:22.298Z,99878.56
2022-11-25T01:04:50.022Z,99873.56
2022-11-25T01:07:18.310Z,99879.53
2022-11-25T01:09:46.168Z,99883.72
2022-11-25T01:12:15.184Z,99882.97
2022-11-25T01:14:42.811Z,99883.09
2022-11-25T01:17:10.429Z,99886.63
2022-11-25T01:19:40.183Z,99897.56
2022-11-25T01:22:09.408Z,99906.97
2022-11-25T01:24:37.135Z,99909.66
2022-11-25T01:27:05.238Z,99896.13
2022-11-25T01:29:34.182Z,99907.09
2022-11-25T01:32:01.856Z,99909.81
2022-11-25T01:34:31.959Z,99916.47
2022-11-25T01:36:59.829Z,99917.38
2022-11-25T01:39:32.603Z,99927.53
2022-11-25T01:42:01.549Z,99919.13
2022-11-25T01:44:31.117Z,99921.75
2022-11-25T01:47:04.518Z,99915.06
2022-11-25T01:49:34.225Z,99910.16
2022-11-25T01:52:07.417Z,99918.59
2022-11-25T01:54:39.568Z,99911.91
2022-11-25T01:57:12.786Z,99923.81
2022-11-25T01:59:44.812Z,99918.72
2022-11-25T02:02:15.514Z,99924.59
2022-11-25T02:04:45.677Z,99925.59
2022-11-25T02:07:19.272Z,99918.66
2022-11-25T02:09:46.965Z,99925.41
2022-11-25T02:12:17.410Z,99931.22
2022-11-25T02:14:46.222Z,99918.59
2022-11-25T02:17:15.197Z,99911.03
2022-11-25T02:19:57.426Z,99910.16
2022-11-25T02:22:28.406Z,99904.88
2022-11-25T02:25:02.365Z,99904.56
2022-11-25T02:27:31.389Z,99899.88
2022-11-25T02:29:58.983Z,99904.84
2022-11-25T02:32:26.649Z,99897.16
2022-11-25T02:34:54.269Z,99891.19
2022-11-25T02:37:24.310Z,99891.44
2022-11-25T02:39:54.401Z,99884.69
2022-11-25T02:42:23.828Z,99884.78
2022-11-25T02:44:52.963Z,99889.16
2022-11-25T02:47:20.541Z,99890.72
2022-11-25T02:49:48.187Z,99883.09
2022-11-25T02:52:16.410Z,99888.97
2022-11-25T02:54:43.987Z,99878.81
2022-11-25T02:57:11.578Z,99886.50
2022-11-25T02:59:39.179Z,99883.09
2022-11-25T03:02:08.415Z,99870.41
2022-11-25T03:04:36.404Z,99872.00
2022-11-25T03:07:04.248Z,99874.47
2022-11-25T03:09:31.853Z,99871.81
2022-11-25T03:12:28.239Z,99880.09
2022-11-25T03:14:57.786Z,99872.47
2022-11-25T03:17:26.744Z,99876.56
2022-11-25T03:19:55.331Z,99873.06
2022-11-25T03:22:23.204Z,99869.56
2022-11-25T03:24:50.934Z,99871.16
2022-11-25T03:27:19.012Z,99870.28
2022-11-25T03:29:47.206Z,99867.81
2022-11-25T03:32:15.036Z,99865.19
2022-11-25T03:34:45.560Z,99869.47
2022-11-25T03:37:13.649Z,99862.59
2022-11-25T03:39:41.396Z,99860.66
2022-11-25T03:42:09.850Z,99863.09
2022-11-25T03:44:37.658Z,99866.34
2022-11-25T03:47:05.663Z,99863.63
2022-11-25T03:49:33.630Z,99863.47
2022-11-25T03:52:02.905Z,99859.19
2022-11-25T03:54:30.991Z,99859.97
2022-11-25T03:57:20.498Z,99854.53
2022-11-25T03:59:48.465Z,99853.94
2022-11-25T04:02:16.453Z,99858.69
2022-11-25T04:04:44.229Z,99858.84
2022-11-25T04:07:13.579Z,99854.53
2022-11-25T04:09:41.756Z,99858.06
2022-11-25T04:12:28.055Z,99844.22
2022-11-25T04:15:05.534Z,99843.25
2022-11-25T04:17:33.196Z,99848.25
2022-11-25T04:20:01.287Z,99854.03
2022-11-25T04:22:31.622Z,99860.88
2022-11-25T04:25:00.071Z,99861.56
2022-11-25T04:27:27.767Z,99858.88
2022-11-25T04:29:55.452Z,99853.06
2022-11-25T04:32:23.630Z,99853.06
2022-11-25T04:34:51.365Z,99853.06
2022-11-25T04:37:19.858Z,99857.34
2022-11-25T04:39:48.977Z,99847.19
2022-11-25T04:42:34.539Z,99847.13
2022-11-25T04:45:24.416Z,99843.72
2022-11-25T04:47:54.483Z,99848.59
2022-11-25T04:50:24.789Z,99845.91
2022-11-25T04:53:10.174Z,99845.13
2022-11-25T04:55:41.002Z,99846.34
2022-11-25T04:58:14.008Z,99843.38
2022-11-25T05:00:44.586Z,99851.59
2022-11-25T05:03:14.619Z,99847.94
2022-11-25T05:05:42.284Z,99848.66
2022-11-25T05:08:10.238Z,99858.59
2022-11-25T05:10:40.999Z,99852.75
2022-11-25T05:13:08.893Z,99869.34
2022-11-25T05:15:36.600Z,99869.34
2022-11-25T05:18:07.905Z,99878.38
2022-11-25T05:20:45.446Z,99886.63
2022-11-25T05:23:15.510Z,99889.91
2022-11-25T05:25:44.974Z,99890.28
2022-11-25T05:28:36.451Z,99885.03
2022-11-25T05:31:04.378Z,99890.28
2022-11-25T05:33:32.034Z,99893.78
2022-11-25T05:36:02.661Z,99897.47
2022-11-25T05:38:45.658Z,99894.13
2022-11-25T05:41:18.401Z,99898.34
2022-11-25T05:43:47.824Z,99905.00
2022-11-25T05:46:16.206Z,99906.03
2022-11-25T05:48:55.408Z,99916.09
2022-11-25T05:51:24.201Z,99919.50
2022-11-25T05:53:52.917Z,99925.97
2022-11-25T05:56:24.791Z,99926.50
2022-11-25T05:59:27.608Z,99913.63
2022-11-25T06:02:09.791Z,99922.13
2022-11-25T06:04:37.884Z,99920.19
2022-11-25T06:07:06.091Z,99923.69
2022-11-25T06:09:34.054Z,99928.38
2022-11-25T06:12:03.043Z,99934.56
2022-11-25T06:14:32.551Z,99931.41
2022-11-25T06:17:00.260Z,99935.44
2022-11-25T06:19:35.196Z,99934.06
2022-11-25T06:22:03.920Z,99932.31
2022-11-25T06:24:31.706Z,99943.00
2022-11-25T06:27:06.294Z,99946.50
2022-11-25T06:29:35.730Z,99950.03
2022-11-25T06:32:03.500Z,99953.50
2022-11-25T06:34:42.746Z,99945.28
2022-11-25T06:37:25.474Z,99953.00
2022-11-25T06:39:53.029Z,99958.25
2022-11-25T06:42:22.083Z,99958.34
2022-11-25T06:44:49.678Z,99963.69
2022-11-25T06:47:17.491Z,99961.16
2022-11-25T06:49:45.136Z,99966.31
2022-11-25T06:52:12.850Z,99965.63
2022-11-25T06:54:41.520Z,99967.63
2022-11-25T06:57:09.541Z,99970.31
2022-11-25T06:59:38.544Z,99974.19
2022-11-25T07:02:06.257Z,99983.69
2022-11-25T07:04:36.196Z,100003.63
2022-11-25T07:07:04.189Z,100012.06
2022-11-25T07:09:31.921Z,100022.25
2022-11-25T07:11:59.790Z,100006.47
2022-11-25T07:14:27.581Z,100014.25
2022-11-25T07:16:56.526Z,100011.00
2022-11-25T07:19:24.189Z,100007.25
2022-11-25T07:21:51.800Z,100011.53
2022-11-25T07:24:19.615Z,100004.34
2022-11-25T07:26:47.285Z,100012.84
2022-11-25T07:29:51.553Z,100013.66
2022-11-25T07:32:10.509Z,100003.69
2022-11-25T07:34:38.703Z,100007.19
2022-11-25T07:37:06.311Z,100005.63
2022-11-25T07:39:34.441Z,100004.19
2022-11-25T07:42:02.472Z,100000.00
2022-11-25T07:44:30.123Z,100008.03
2022-11-25T07:47:11.917Z,100000.56
2022-11-25T07:49:39.889Z,100001.50
2022-11-25T07:52:07.548Z,100016.97
2022-11-25T07:54:35.197Z,100012.00
2022-11-25T07:57:02.879Z,100020.75
2022-11-25T07:59:30.642Z,100019.50
2022-11-25T08:01:58.443Z,100024.94
2022-11-25T08:04:27.427Z,100032.13
2022-11-25T08:06:55.222Z,100025.59
2022-11-25T08:09:25.169Z,100031.00
2022-11-25T08:11:53.868Z,100029.56
2022-11-25T08:14:21.795Z,100041.63
2022-11-25T08:16:49.543Z,100028.28
2022-11-25T08:19:18.375Z,100040.22
2022-11-25T08:21:48.609Z,100037.19
2022-11-25T08:24:17.941Z,100030.81
2022-11-25T08:26:45.862Z,100037.00
2022-11-25T08:29:15.541Z,100034.06
2022-11-25T08:31:43.871Z,100019.16
2022-11-25T08:34:18.848Z,100016.94
2022-11-25T08:36:49.219Z,100022.44
2022-11-25T08:39:44.336Z,100029.16
2022-11-25T08:42:08.579Z,100029.75
2022-11-25T08:44:36.815Z,100029.53
2022-11-25T08:47:04.471Z,100027.53
2022-11-25T08:49:36.212Z,100028.66
2022-11-25T08:52:09.582Z,100034.91
2022-11-25T08:54:37.276Z,100039.91
2022-11-25T08:57:05.184Z,100044.38
2022-11-25T08:59:32.851Z,100047.31
2022-11-25T09:02:00.607Z,100050.22
2022-11-25T09:04:28.501Z,100054.91
2022-11-25T09:06:56.118Z,100058.75
2022-11-25T09:09:25.177Z,100059.00
2022-11-25T09:11:52.848Z,100054.00
2022-11-25T09:14:20.566Z,100056.78
2022-11-25T09:16:48.428Z,100062.81
2022-11-25T09:19:16.018Z,100066.28
2022-11-25T09:21:44.399Z,100068.03
2022-11-25T09:24:12.030Z,100074.22
2022-11-25T09:26:42.168Z,100074.44
2022-11-25T09:29:11.569Z,100091.78
2022-11-25T09:31:39.204Z,100096.22
2022-11-25T09:34:08.508Z,100095.41
2022-11-25T09:36:36.347Z,100110.09
2022-11-25T09:39:04.454Z,100108.63
2022-11-25T09:42:09.396Z,100108.25
2022-11-25T09:45:09.302Z,100111.19
2022-11-25T09:47:48.331Z,100108.94
2022-11-25T09:50:27.579Z,100105.63
2022-11-25T09:53:06.207Z,100111.31
2022-11-25T09:55:39.044Z,100111.41
2022-11-25T09:58:22.500Z,100110.69
2022-11-25T10:00:52.487Z,100104.41
2022-11-25T10:03:31.973Z,100115.59
2022-11-25T10:06:04.444Z,100121.66
2022-11-25T10:08:37.675Z,100116.94
2022-11-25T10:11:18.200Z,100117.19
2022-11-25T10:13:55.694Z,100122.47
2022-11-25T10:16:34.324Z,100129.31
2022-11-25T10:19:06.838Z,100115.84
2022-11-25T10:21:34.522Z,100126.59
2022-11-25T10:24:03.836Z,100129.09
2022-11-25T10:26:37.969Z,100120.00
2022-11-25T10:29:23.276Z,100120.50
2022-11-25T10:31:56.206Z,100126.00
2022-11-25T10:34:31.671Z,100121.25
2022-11-25T10:37:01.545Z,100128.75
2022-11-25T10:39:32.508Z,100120.38
2022-11-25T10:42:03.460Z,100130.03
2022-11-25T10:44:34.595Z,100126.09
2022-11-25T10:47:18.678Z,100127.25
2022-11-25T10:50:00.906Z,100132.28
2022-11-25T10:52:31.437Z,100129.97
2022-11-25T10:55:11.288Z,100129.63
2022-11-25T10:57:39.273Z,100138.38
2022-11-25T11:00:24.684Z,100132.63
2022-11-25T11:02:52.567Z,100136.06
2022-11-25T11:05:24.078Z,100131.72
2022-11-25T11:08:10.197Z,100135.41
2022-11-25T11:10:38.323Z,100136.25
2022-11-25T11:13:18.957Z,100144.50
2022-11-25T11:15:49.112Z,100140.28
2022-11-25T11:18:25.116Z,100136.69
2022-11-25T11:20:55.053Z,100140.28
2022-11-25T11:23:23.620Z,100150.16
2022-11-25T11:26:00.461Z,100158.06
2022-11-25T11:28:32.913Z,100165.75
2022-11-25T11:31:04.981Z,100153.06
2022-11-25T11:33:42.213Z,100159.81
2022-11-25T11:36:27.369Z,100161.78
2022-11-25T11:38:58.129Z,100157.53
2022-11-25T11:41:37.591Z,100156.31
2022-11-25T11:44:11.788Z,100154.66
2022-11-25T11:46:54.127Z,100164.16
2022-11-25T11:49:45.420Z,100166.00
2022-11-25T11:52:23.538Z,100157.78
2022-11-25T11:54:54.574Z,100170.22
2022-11-25T11:57:32.427Z,100171.97
2022-11-25T12:00:06.885Z,100166.72
2022-11-25T12:02:54.318Z,100175.75
2022-11-25T12:05:26.509Z,100171.66
2022-11-25T12:08:04.163Z,100174.72
2022-11-25T12:10:38.029Z,100183.63
2022-11-25T12:13:14.989Z,100180.31
2022-11-25T12:15:50.297Z,100173.50
2022-11-25T12:18:32.048Z,100178.59
2022-11-25T12:21:03.174Z,100182.63
2022-11-25T12:23:42.773Z,100190.00
2022-11-25T12:26:15.809Z,100189.47
2022-11-25T12:28:49.957Z,100186.47
2022-11-25T12:31:23.186Z,100196.75
2022-11-25T12:34:01.184Z,100190.00
2022-11-25T12:36:34.232Z,100193.41
2022-11-25T12:39:05.019Z,100186.91
2022-11-25T12:41:41.755Z,100199.22
2022-11-25T12:44:16.447Z,100204.88
2022-11-25T12:46:47.465Z,100199.75
2022-11-25T12:49:20.797Z,100203.22
2022-11-25T12:52:09.276Z,100209.31
2022-11-25T12:55:01.414Z,100210.00
2022-11-25T12:57:57.206Z,100228.59
2022-11-25T13:00:47.550Z,100232.09
2022-11-25T13:03:35.919Z,100236.88
2022-11-25T13:06:23.638Z,100241.69
2022-11-25T13:09:03.556Z,100236.81
2022-11-25T13:12:10.666Z,100245.72
2022-11-25T13:15:02.362Z,100249.72
2022-11-25T13:17:36.968Z,100252.91
2022-11-25T13:20:43.208Z,100244.16
2022-11-25T13:23:25.075Z,100241.84
2022-11-25T13:25:54.531Z,100244.72
2022-11-25T13:28:31.621Z,100250.44
2022-11-25T13:31:24.559Z,100253.09
2022-11-25T13:34:29.739Z,100253.66
2022-11-25T13:36:59.031Z,100255.69
2022-11-25T13:39:33.360Z,100261.22
2022-11-25T13:42:14.046Z,100265.94
2022-11-25T13:44:53.308Z,100267.38
2022-11-25T13:47:31.865Z,100274.56
2022-11-25T13:50:02.192Z,100279.75
2022-11-25T13:52:37.402Z,100282.06
2022-11-25T13:55:21.843Z,100276.31
2022-11-25T13:58:02.014Z,100287.00
2022-11-25T14:00:51.583Z,100289.94
2022-11-25T14:03:51.106Z,100300.31
2022-11-25T14:06:54.928Z,100306.44
2022-11-25T14:09:45.270Z,100309.88
2022-11-25T14:12:35.377Z,100310.47
2022-11-25T14:15:29.687Z,100317.22
2022-11-25T14:18:37.091Z,100325.47
2022-11-25T14:21:17.316Z,100319.28
2022-11-25T14:23:54.974Z,100322.00
2022-11-25T14:26:48.747Z,100330.44
2022-11-25T14:29:21.118Z,100335.44
2022-11-25T14:31:52.744Z,100326.91
2022-11-25T14:34:24.511Z,100329.34
2022-11-25T14:36:54.948Z,100328.81
2022-11-25T14:39:27.205Z,100328.75
2022-11-25T14:42:03.424Z,100331.84
2022-11-25T14:44:39.315Z,100338.25
2022-11-25T14:47:06.910Z,100346.53
2022-11-25T14:49:52.047Z,100340.00
2022-11-25T14:52:36.122Z,100331.38
2022-11-25T14:55:06.686Z,100342.41
2022-11-25T14:57:38.240Z,100342.25
2022-11-25T15:00:10.065Z,100343.78
2022-11-25T15:02:42.214Z,100344.59
2022-11-25T15:05:18.050Z,100354.81
2022-11-25T15:07:57.765Z,100355.44
2022-11-25T15:10:42.210Z,100353.59
2022-11-25T15:13:23.916Z,100356.88
2022-11-25T15:15:55.550Z,100353.28
2022-11-25T15:18:25.877Z,100358.56
2022-11-25T15:20:58.869Z,100363.59
2022-11-25T15:23:31.739Z,100364.22
2022-11-25T15:25:59.374Z,100365.06
2022-11-25T15:28:26.974Z,100365.78
2022-11-25T15:31:00.596Z,100373.47
2022-11-25T15:33:30.432Z,100380.22
2022-11-25T15:35:58.201Z,100381.00
2022-11-25T15:38:42.034Z,100397.16
2022-11-25T15:41:18.931Z,100390.31
2022-11-25T15:43:49.361Z,100398.88
2022-11-25T15:46:18.959Z,100412.56
2022-11-25T15:48:48.288Z,100417.56
2022-11-25T15:51:25.654Z,100417.56
2022-11-25T15:53:56.186Z,100423.38
2022-11-25T15:56:27.450Z,100427.53
2022-11-25T15:59:00.138Z,100430.03
2022-11-25T16:01:31.494Z,100420.44
2022-11-25T16:04:20.499Z,100430.63
2022-11-25T16:06:56.308Z,100428.03
2022-11-25T16:09:28.448Z,100420.25
2022-11-25T16:12:06.123Z,100417.66
2022-11-25T16:14:37.224Z,100417.56
2022-11-25T16:17:11.342Z,100428.53
2022-11-25T16:19:43.281Z,100431.19
2022-11-25T16:22:15.626Z,100442.13
2022-11-25T16:24:50.403Z,100439.44
2022-11-25T16:27:24.327Z,100441.78
2022-11-25T16:29:55.227Z,100438.06
2022-11-25T16:32:26.311Z,100452.41
2022-11-25T16:34:56.624Z,100451.50
2022-11-25T16:37:24.379Z,100454.78
2022-11-25T16:39:52.100Z,100469.22
2022-11-25T16:42:21.885Z,100471.72
2022-11-25T16:44:51.735Z,100468.31
2022-11-25T16:47:21.206Z,100476.84
2022-11-25T16:49:50.390Z,100475.09
2022-11-25T16:52:18.031Z,100476.75
2022-11-25T16:54:46.113Z,100480.09
2022-11-25T16:57:18.674Z,100486.91
2022-11-25T16:59:51.118Z,100498.72
2022-11-25T17:02:23.445Z,100497.16
2022-11-25T17:04:52.554Z,100505.69
2022-11-25T17:07:36.253Z,100506.44
2022-11-25T17:10:05.155Z,100513.09
2022-11-25T17:12:34.921Z,100513.97
2022-11-25T17:15:04.640Z,100512.13
2022-11-25T17:17:32.858Z,100512.81
2022-11-25T17:20:01.887Z,100515.13
2022-11-25T17:22:33.497Z,100523.53
2022-11-25T17:25:04.398Z,100519.91
2022-11-25T17:27:33.880Z,100520.91
2022-11-25T17:30:04.047Z,100528.44
2022-11-25T17:32:32.926Z,100527.31
2022-11-25T17:35:01.855Z,100539.97
2022-11-25T17:37:30.999Z,100545.09
2022-11-25T17:39:58.605Z,100539.97
2022-11-25T17:42:30.076Z,100546.94
2022-11-25T17:44:57.995Z,100545.19
2022-11-25T17:47:25.762Z,100558.84
2022-11-25T17:49:54.352Z,100561.19
2022-11-25T17:52:23.379Z,100558.47
2022-11-25T17:54:51.053Z,100563.56
2022-11-25T17:57:22.576Z,100566.06
2022-11-25T17:59:50.479Z,100565.09
2022-11-25T18:02:20.203Z,100572.69
2022-11-25T18:04:48.412Z,100578.44
2022-11-25T18:07:16.240Z,100584.56
2022-11-25T18:09:45.869Z,100592.16
2022-11-25T18:12:17.580Z,100593.75
2022-11-25T18:14:46.218Z,100597.91
2022-11-25T18:17:17.140Z,100599.41
2022-11-25T18:19:48.544Z,100597.69
2022-11-25T18:22:20.574Z,100601.88
2022-11-25T18:24:49.609Z,100601.88
2022-11-25T18:27:24.438Z,100601.09
2022-11-25T18:29:53.095Z,100602.63
2022-11-25T18:32:21.290Z,100609.66
2022-11-25T18:34:49.046Z,100618.13
2022-11-25T18:37:16.856Z,100623.34
2022-11-25T18:39:45.361Z,100631.06
2022-11-25T18:42:24.094Z,100633.94
2022-11-25T18:44:51.930Z,100640.25
2022-11-25T18:47:19.562Z,100642.19
2022-11-25T18:49:51.039Z,100648.56
2022-11-25T18:52:21.698Z,100652.16
2022-11-25T18:54:49.592Z,100654.16
2022-11-25T18:57:18.624Z,100661.78
2022-11-25T18:59:48.072Z,100657.22
2022-11-25T19:02:23.905Z,100658.78
2022-11-25T19:04:51.579Z,100662.00
2022-11-25T19:07:19.251Z,100669.66
2022-11-25T19:09:46.939Z,100672.38
2022-11-25T19:12:20.130Z,100667.91
2022-11-25T19:14:48.653Z,100672.78
2022-11-25T19:17:21.341Z,100684.66
2022-11-25T19:19:49.000Z,100684.66
2022-11-25T19:22:18.664Z,100693.16
2022-11-25T19:24:46.990Z,100691.38
2022-11-25T19:27:19.122Z,100695.63
2022-11-25T19:29:48.217Z,100705.06
2022-11-25T19:32:20.389Z,100707.53
2022-11-25T19:34:51.766Z,100711.81
2022-11-25T19:37:21.956Z,100715.19
2022-11-25T19:39:51.223Z,100721.06
2022-11-25T19:42:20.319Z,100730.47
2022-11-25T19:44:48.256Z,100726.94
2022-11-25T19:47:20.162Z,100733.69
2022-11-25T19:49:48.674Z,100739.56
2022-11-25T19:52:17.974Z,100751.44
2022-11-25T19:54:45.603Z,100761.66
2022-11-25T19:57:17.476Z,100768.31
2022-11-25T19:59:46.664Z,100772.69
2022-11-25T20:02:17.447Z,100773.72
2022-11-25T20:04:47.794Z,100773.78
2022-11-25T20:07:18.886Z,100781.47
2022-11-25T20:09:47.165Z,100780.69
2022-11-25T20:12:21.176Z,100786.75
2022-11-25T20:14:51.120Z,100792.84
2022-11-25T20:17:25.714Z,100791.91
2022-11-25T20:19:54.764Z,100800.84
2022-11-25T20:22:26.011Z,100806.03
2022-11-25T20:24:54.387Z,100804.50
2022-11-25T20:27:26.182Z,100811.59
2022-11-25T20:29:55.524Z,100811.94
2022-11-25T20:32:27.733Z,100818.16
2022-11-25T20:34:55.880Z,100819.84
2022-11-25T20:37:24.567Z,100827.88
2022-11-25T20:39:53.533Z,100824.78
2022-11-25T20:42:22.007Z,100829.13
2022-11-25T20:44:54.640Z,100835.19
2022-11-25T20:47:27.270Z,100841.13
2022-11-25T20:49:54.994Z,100841.94
2022-11-25T20:52:28.103Z,100846.28
2022-11-25T20:54:55.886Z,100849.66
2022-11-25T20:57:23.508Z,100848.78
2022-11-25T20:59:51.408Z,100853.97
2022-11-25T21:02:21.513Z,100859.06
2022-11-25T21:04:50.642Z,100851.34
2022-11-25T21:07:18.604Z,100856.44
2022-11-25T21:09:46.393Z,100857.22
2022-11-25T21:12:19.263Z,100863.97
2022-11-25T21:14:47.566Z,100862.28
2022-11-25T21:17:15.191Z,100868.28
2022-11-25T21:19:42.861Z,100873.50
2022-11-25T21:22:14.540Z,100873.59
2022-11-25T21:24:42.885Z,100877.91
2022-11-25T21:27:15.032Z,100884.13
2022-11-25T21:29:44.020Z,100877.25
2022-11-25T21:32:20.529Z,100881.56
2022-11-25T21:34:48.447Z,100888.44
2022-11-25T21:37:18.688Z,100887.63
2022-11-25T21:39:46.377Z,100892.66
2022-11-25T21:42:19.518Z,100885.00
2022-11-25T21:44:49.832Z,100895.28
2022-11-25T21:47:19.743Z,100892.72
2022-11-25T21:49:47.627Z,100896.22
2022-11-25T21:52:17.098Z,100895.34
2022-11-25T21:54:45.009Z,100898.88
2022-11-25T21:57:16.167Z,100895.34
2022-11-25T21:59:45.154Z,100898.72
2022-11-25T22:02:24.269Z,100907.25
2022-11-25T22:04:53.133Z,100903.19
2022-11-25T22:07:26.360Z,100913.25
2022-11-25T22:09:56.927Z,100896.16
2022-11-25T22:12:29.020Z,100902.25
2022-11-25T22:14:58.594Z,100902.25
2022-11-25T22:17:26.833Z,100900.47
2022-11-25T22:19:54.724Z,100909.00
2022-11-25T22:22:23.835Z,100910.75
2022-11-25T22:24:51.468Z,100919.28
2022-11-25T22:27:22.252Z,100920.31
2022-11-25T22:29:50.685Z,100922.13
2022-11-25T22:32:19.199Z,100917.72
2022-11-25T22:34:46.846Z,100921.19
2022-11-25T22:37:18.015Z,100922.94
2022-11-25T22:39:47.128Z,100917.50
2022-11-25T22:42:21.090Z,100922.81
2022-11-25T22:44:50.293Z,100920.91
2022-11-25T22:47:34.195Z,100923.97
2022-11-25T22:50:03.317Z,100929.72
2022-11-25T22:52:32.692Z,100928.78
2022-11-25T22:55:13.846Z,100921.78
2022-11-25T22:57:41.683Z,100926.63
2022-11-25T23:00:11.662Z,100928.28
2022-11-25T23:02:39.563Z,100920.34
2022-11-25T23:05:15.869Z,100940.00
2022-11-25T23:07:43.537Z,100945.13
2022-11-25T23:10:17.410Z,100941.91
2022-11-25T23:12:45.281Z,100940.81
2022-11-25T23:15:15.090Z,100946.88
2022-11-25T23:17:47.901Z,100950.41
2022-11-25T23:20:18.859Z,100948.34
2022-11-25T23:22:46.800Z,100948.72
2022-11-25T23:25:17.757Z,100948.59
2022-11-25T23:27:45.909Z,100952.63
2022-11-25T23:30:18.382Z,100961.09
2022-11-25T23:32:48.549Z,100959.22
2022-11-25T23:35:19.161Z,100967.63
2022-11-25T23:37:52.941Z,100963.25
2022-11-25T23:40:24.365Z,100960.50
2022-11-25T23:42:52.468Z,100967.25
2022-11-25T23:45:23.426Z,100968.91
2022-11-25T23:47:53.667Z,100969.69
2022-11-25T23:50:27.042Z,100977.31
2022-11-25T23:52:57.336Z,100977.31
2022-11-25T23:55:31.448Z,100979.06
2022-11-25T23:58:01.369Z,100982.22
